Thursday, July 24, 2014
15:27 UTC
  |  Log In   |  Register Free
Airport Search:

South Big Horn County Airport
(KGEY)

South Big Horn County Airport Diagram
No Airport Diagram Available

FAA data valid effective May 29, 2014 until July 24, 2014 (unless otherwise noted).

 
 
 
 
 
 
 
 
 
 
 
 
 
 

Current Aviation Weather for South Big Horn County Airport (KGEY)

The most recent METAR observation for KGEY was updated at: 1353 UTC
METAR Summary (Translated METAR)
KGEY
241353Z AUTO 00000KT 10SM CLR 26/06 A2989 RMK AO2 SLP069 T02610056
KWRL
(33.8 nm SE from KGEY)
241453Z AUTO 22003KT 10SM CLR 30/05 A2990 RMK AO2 SLP062 T03000050 53000
TAF Summary (Translated TAF)
KWRL
(33.8 nm SE from KGEY)
241122Z 2412/2512 VRB06KT P6SM FEW150 FM242100 27014G22KT P6SM FEW120 FM250200 35010KT P6SM FEW120 FM250700 VRB05KT P6SM SKC
KCOD
(40.3 nm NW from KGEY)
241122Z 2412/2512 25011KT P6SM FEW150 FM241800 25014G24KT P6SM SCT130 FM250100 36012KT P6SM FEW120 FM250700 35007KT P6SM SKC AMD LTD TO CLD VIS AND WIND
  Airport Weather Conditions for KGEY

Current weather conditions are
not available for GEY


The nearest NOAA weather station
is at WRL, (33.8 nm SE from GEY)
  
 Current Weather at WRL
86° F
Fair
Southwest winds at 3.5 mph
WRL NOAA Radar

Pressure: 29.90 in
Humidity: 20%
Wind: Southwest at 3.5 MPH (3 KT)
Dew Point: 41.0°F
Visibility: 10.00 mi


Airport Weather Forecast for KGEY

Translated METAR and TAF for KGEY
Translated METAR for KGEY (1521 UTC 24 July 2014)
found at http://aviationweather.gov/adds/metars/
 
METAR text: KGEY 241453Z AUTO 00000KT 10SM CLR 28/09 A2989 RMK AO2 SLP068 T02830094 50005
Conditions at: KGEY (GREYBULL , WY, US) observed 1453 UTC 24 July 2014
Temperature: 28.3°C (83°F)
Dewpoint: 9.4°C (49°F) [RH = 31%]
Pressure (altimeter): 29.89 inches Hg (1012.3 mb)
[Sea-level pressure: 1006.8 mb]
Winds: calm
Visibility: 10 or more miles (16+ km)
Ceiling: at least 12,000 feet AGL
Clouds: sky clear below 12,000 feet AGL
Weather: automated observation with no human augmentation;
there may or may not be significant weather present at this time
Translated TAF for KGEY

There is no translated TAF available for this airport

Find All Airport Services Find A Hotel Find A Rental Car Find A Golf Course Find A Restaurant $100 Hamburger



FBO's on the Field
FBO Company Facility Photos Services Transportation Aviation Fuel Prices: Prices include tax
Catering Weather Repair Courtesy Rental Type 100LL JetA JetA+ MOGAS 8087
 
B & G Industries, LLC

This FBO has not yet been rated
FS:Independent
Last Updated: Jun-23
Login to update fuel prices
SS:
Contact B & G Industries, LLCMore FBO Information
 
South Big Horn County Airport

This FBO has not yet been rated
FS:Independent
Last Updated: Jun-30
Login to update fuel prices
SS:
Contact South Big Horn County AirportMore FBO Information
 
Add another FBO Facility Photos Catering Weather Repair Courtesy Rental Type 100LL JetA JetA+ MOGAS 8087
Services Transportation Aviation Fuel Prices: Prices include tax


GlobalAir.com Airport Resource Center model-print
model-print
model-print
model-print